Time;durP1;ratioP1;P1;durP2;ratioP2;P2;SDS_P1;SDS_P2;PMS_P1;PMS_P2;Temp;Humidity;BMP_temperature;BMP_pressure;BME280_temperature;BME280_humidity;BME280_pressure;Samples;Min_cycle;Max_cycle;Signal;HPM_P1;HPM_P2
2023/08/14 00:00:23;;;;;;;114.50;3.60;;;24.30;67.80;;;;;;5052423;28;20544;-81
2023/08/14 00:02:48;;;;;;;111.10;2.90;;;24.40;64.20;;;;;;5034209;28;20194;-81
2023/08/14 00:05:14;;;;;;;111.17;3.00;;;24.30;65.10;;;;;;5052846;28;20554;-81
2023/08/14 00:07:39;;;;;;;111.30;2.90;;;23.70;70.70;;;;;;5052452;28;20199;-80
2023/08/14 00:10:05;;;;;;;111.87;3.40;;;24.10;69.60;;;;;;5034015;28;20700;-81
2023/08/14 00:12:31;;;;;;;111.87;3.47;;;24.40;65.80;;;;;;5052542;28;20195;-82
2023/08/14 00:14:56;;;;;;;111.77;3.33;;;24.50;64.40;;;;;;5051834;28;20845;-81
2023/08/14 00:17:22;;;;;;;111.90;3.20;;;24.70;63.10;;;;;;5034348;28;20697;-81
2023/08/14 00:19:47;;;;;;;111.77;3.30;;;24.90;61.20;;;;;;5052383;28;20174;-81
2023/08/14 00:22:13;;;;;;;111.80;3.03;;;24.70;62.20;;;;;;5052494;28;20217;-81
2023/08/14 00:24:38;;;;;;;111.50;3.07;;;25.10;63.30;;;;;;5052127;28;20171;-81
2023/08/14 00:27:04;;;;;;;111.37;3.00;;;24.80;61.80;;;;;;5051797;28;20692;-81
2023/08/14 00:29:29;;;;;;;111.57;3.00;;;24.90;62.10;;;;;;5053393;28;20669;-80
2023/08/14 00:31:55;;;;;;;112.17;3.50;;;24.80;61.40;;;;;;5035971;28;20193;-81
2023/08/14 00:34:21;;;;;;;111.50;3.00;;;24.70;62.20;;;;;;5052427;28;20258;-81
2023/08/14 00:36:46;;;;;;;112.40;3.33;;;24.80;61.80;;;;;;5051733;28;20188;-81
2023/08/14 00:39:12;;;;;;;111.87;3.40;;;24.90;61.80;;;;;;5052169;28;20197;-82
2023/08/14 00:41:37;;;;;;;111.60;3.07;;;24.90;61.40;;;;;;5052167;28;20180;-81
2023/08/14 00:44:03;;;;;;;111.77;3.20;;;24.80;61.70;;;;;;5051846;28;20177;-81
2023/08/14 00:46:30;;;;;;;111.77;3.30;;;24.80;62.00;;;;;;5051646;28;20196;-81
2023/08/14 00:48:56;;;;;;;111.60;3.17;;;24.80;61.80;;;;;;5051991;28;20494;-81
2023/08/14 00:51:23;;;;;;;112.10;3.40;;;24.90;62.10;;;;;;5052168;28;20447;-81
2023/08/14 00:53:50;;;;;;;112.07;3.20;;;25.10;61.50;;;;;;5051984;28;20587;-81
2023/08/14 00:56:16;;;;;;;112.23;3.50;;;25.00;61.10;;;;;;5063293;28;20445;-77
2023/08/14 00:58:42;;;;;;;111.70;3.00;;;25.20;60.90;;;;;;5061961;28;20438;-82
2023/08/14 01:01:08;;;;;;;112.00;3.30;;;25.10;60.50;;;;;;5051958;28;20410;-81
2023/08/14 01:03:34;;;;;;;111.90;3.10;;;25.00;61.50;;;;;;5056952;28;20679;-81
2023/08/14 01:06:00;;;;;;;112.07;3.30;;;25.00;61.40;;;;;;5051498;28;20199;-81
2023/08/14 01:08:27;;;;;;;111.97;3.10;;;24.80;62.30;;;;;;5035236;28;20472;-77
2023/08/14 01:11:12;;;;;;;111.80;3.27;;;24.80;62.30;;;;;;5061886;28;20438;-81
2023/08/14 01:13:56;;;;;;;112.47;3.67;;;24.40;65.20;;;;;;5052012;28;20451;-81
2023/08/14 01:16:27;;;;;;;112.17;3.50;;;24.40;66.50;;;;;;5051385;28;20426;-81
2023/08/14 01:18:55;;;;;;;112.53;4.03;;;24.70;65.50;;;;;;5033467;28;20423;-81
2023/08/14 01:21:39;;;;;;;111.90;3.40;;;24.60;64.80;;;;;;5053440;28;20409;-80
2023/08/14 01:24:30;;;;;;;112.03;3.30;;;23.10;78.30;;;;;;5038266;28;20939;-81
2023/08/14 01:26:56;;;;;;;112.07;3.10;;;21.90;91.70;;;;;;5058056;28;20476;-80
2023/08/14 01:29:21;;;;;;;112.57;3.20;;;21.80;94.70;;;;;;5055384;28;20455;-81
2023/08/14 01:31:47;;;;;;;112.47;3.30;;;23.30;88.90;;;;;;5055669;28;20431;-81
2023/08/14 01:34:13;;;;;;;112.17;3.13;;;23.70;78.00;;;;;;5055525;28;20250;-81
2023/08/14 01:36:57;;;;;;;112.37;3.37;;;24.40;70.60;;;;;;5055257;28;20558;-81
2023/08/14 01:39:30;;;;;;;112.20;3.10;;;24.60;69.20;;;;;;5062090;28;20423;-81
2023/08/14 01:42:21;;;;;;;112.30;3.43;;;24.30;72.60;;;;;;5079567;28;20415;-78
2023/08/14 01:44:49;;;;;;;111.80;3.00;;;23.60;73.70;;;;;;5078753;28;20407;-79
2023/08/14 01:47:18;;;;;;;112.10;2.87;;;23.40;78.00;;;;;;5079207;28;20416;-80
2023/08/14 01:49:44;;;;;;;112.40;3.10;;;23.60;76.00;;;;;;5054756;28;20464;-81
2023/08/14 01:52:10;;;;;;;112.60;3.27;;;23.70;73.00;;;;;;5036690;28;20857;-82
2023/08/14 01:54:36;;;;;;;112.30;3.17;;;23.80;71.70;;;;;;5053830;28;20501;-81
2023/08/14 01:57:01;;;;;;;113.27;3.33;;;23.90;71.10;;;;;;5054185;28;20208;-82
2023/08/14 01:59:42;;;;;;;112.70;3.03;;;24.00;70.60;;;;;;5054291;28;20256;-82
2023/08/14 02:02:09;;;;;;;112.50;2.80;;;23.90;68.30;;;;;;5054353;28;20186;-82
2023/08/14 02:04:34;;;;;;;113.00;3.27;;;23.90;69.00;;;;;;5053794;28;20417;-82
2023/08/14 02:07:00;;;;;;;112.67;2.93;;;23.90;69.40;;;;;;5036333;28;20444;-82
2023/08/14 02:09:25;;;;;;;113.27;3.43;;;23.90;69.40;;;;;;5054264;28;20199;-82
2023/08/14 02:11:51;;;;;;;113.80;3.60;;;24.00;69.70;;;;;;5054066;28;20168;-82
2023/08/14 02:14:16;;;;;;;112.70;2.90;;;24.00;70.40;;;;;;5053867;28;20542;-82
2023/08/14 02:16:42;;;;;;;113.00;3.00;;;24.10;69.30;;;;;;5053644;28;20265;-82
2023/08/14 02:19:08;;;;;;;113.47;3.37;;;24.10;68.10;;;;;;5054124;28;20180;-82
2023/08/14 02:21:33;;;;;;;113.27;3.17;;;24.10;69.40;;;;;;5054176;28;20180;-82
2023/08/14 02:23:59;;;;;;;113.97;3.33;;;24.00;69.00;;;;;;5054748;28;20229;-81
2023/08/14 02:26:24;;;;;;;113.50;3.20;;;24.00;70.00;;;;;;5057628;28;20805;-82
2023/08/14 02:28:52;;;;;;;113.13;3.17;;;23.80;70.30;;;;;;5035493;28;20587;-82
2023/08/14 02:31:17;;;;;;;113.30;3.13;;;23.80;70.80;;;;;;5035968;28;20210;-82
2023/08/14 02:33:43;;;;;;;113.30;3.20;;;23.90;70.70;;;;;;5052745;28;20468;-81
2023/08/14 02:36:09;;;;;;;113.23;3.03;;;23.90;68.60;;;;;;5053414;28;20199;-82
2023/08/14 02:38:35;;;;;;;112.87;2.90;;;24.00;68.90;;;;;;5053705;28;20209;-81
2023/08/14 02:41:04;;;;;;;112.87;2.67;;;24.00;70.00;;;;;;5055330;28;20179;-82
2023/08/14 02:43:30;;;;;;;113.07;3.03;;;24.00;68.80;;;;;;5063707;28;20410;-81
2023/08/14 02:45:55;;;;;;;113.37;3.30;;;24.00;69.80;;;;;;5075419;28;20422;-80
2023/08/14 02:48:23;;;;;;;112.80;2.80;;;24.00;69.50;;;;;;5074277;28;20429;-79
2023/08/14 02:50:48;;;;;;;113.13;3.40;;;24.00;69.80;;;;;;5057896;28;20206;-81
2023/08/14 02:53:14;;;;;;;113.10;3.10;;;23.90;70.30;;;;;;5076572;28;20386;-79
2023/08/14 02:55:40;;;;;;;113.00;2.90;;;23.70;72.40;;;;;;5075974;28;20210;-79
2023/08/14 02:58:05;;;;;;;113.07;3.13;;;23.60;73.50;;;;;;5075830;28;20183;-79
2023/08/14 03:00:31;;;;;;;112.90;3.20;;;23.60;73.40;;;;;;5057525;28;20172;-81
2023/08/14 03:02:56;;;;;;;113.20;3.20;;;23.40;76.20;;;;;;5054316;28;20211;-81
2023/08/14 03:05:22;;;;;;;113.00;3.27;;;23.50;76.00;;;;;;5054713;28;20183;-81
2023/08/14 03:07:47;;;;;;;112.70;3.00;;;23.30;77.10;;;;;;5053924;28;20255;-80
2023/08/14 03:10:13;;;;;;;113.07;3.27;;;23.40;75.40;;;;;;5062010;28;20205;-81
2023/08/14 03:12:39;;;;;;;112.77;3.20;;;23.60;75.20;;;;;;5053445;28;20229;-81
2023/08/14 03:15:05;;;;;;;113.27;3.43;;;23.80;72.40;;;;;;5034866;28;20666;-81
2023/08/14 03:17:31;;;;;;;113.07;3.17;;;24.00;69.80;;;;;;5053267;28;20194;-81
2023/08/14 03:19:56;;;;;;;113.20;3.00;;;24.00;68.90;;;;;;5035111;28;20407;-81
2023/08/14 03:22:22;;;;;;;112.90;3.07;;;23.90;69.20;;;;;;5052949;28;20229;-81
2023/08/14 03:24:48;;;;;;;113.17;3.10;;;24.10;69.30;;;;;;5034217;28;20236;-81
2023/08/14 03:27:13;;;;;;;113.27;3.10;;;23.90;68.80;;;;;;5052716;28;20206;-81
2023/08/14 03:29:39;;;;;;;113.07;3.13;;;24.00;68.40;;;;;;5052962;28;20246;-81
2023/08/14 03:32:05;;;;;;;113.80;3.60;;;23.90;68.20;;;;;;5052789;28;20173;-81
2023/08/14 03:34:30;;;;;;;113.57;3.47;;;23.80;69.00;;;;;;5034492;28;20203;-79
2023/08/14 03:36:56;;;;;;;113.67;3.40;;;23.80;69.30;;;;;;5050088;28;20221;-80
2023/08/14 03:39:22;;;;;;;113.87;3.30;;;23.60;71.10;;;;;;5073187;28;20198;-80
2023/08/14 03:41:47;;;;;;;113.57;3.47;;;23.70;71.20;;;;;;5073246;28;20195;-81
2023/08/14 03:44:13;;;;;;;112.93;2.90;;;23.70;70.30;;;;;;5063606;28;20414;-81
2023/08/14 03:46:38;;;;;;;113.37;3.40;;;23.80;70.10;;;;;;5052408;28;20196;-80
2023/08/14 03:49:05;;;;;;;114.20;3.50;;;23.70;69.70;;;;;;5052669;28;20200;-81
2023/08/14 03:51:30;;;;;;;145.47;3.77;;;23.80;69.10;;;;;;5036887;28;20415;-78
2023/08/14 03:53:56;;;;;;;113.53;3.17;;;23.70;70.50;;;;;;5071911;28;20419;-81
2023/08/14 03:56:22;;;;;;;113.50;3.20;;;23.80;70.10;;;;;;5052196;28;20203;-81
2023/08/14 03:58:47;;;;;;;114.00;3.50;;;23.70;69.70;;;;;;5052247;28;20174;-81
2023/08/14 04:01:13;;;;;;;113.83;3.47;;;23.80;69.20;;;;;;5035330;28;20623;-79
2023/08/14 04:03:39;;;;;;;113.00;3.17;;;23.60;70.90;;;;;;5053160;28;20222;-81
2023/08/14 04:06:04;;;;;;;113.83;3.67;;;22.90;75.80;;;;;;5034610;28;20607;-82
2023/08/14 04:08:30;;;;;;;113.57;3.23;;;22.60;80.20;;;;;;5052952;28;20414;-80
2023/08/14 04:10:59;;;;;;;113.50;3.17;;;22.40;83.00;;;;;;5052615;28;20207;-80
2023/08/14 04:13:26;;;;;;;113.90;3.40;;;22.20;85.70;;;;;;5052948;28;20486;-81
2023/08/14 04:15:59;;;;;;;113.17;3.13;;;22.90;82.00;;;;;;5052067;28;20538;-80
2023/08/14 04:18:28;;;;;;;113.73;3.40;;;23.20;76.10;;;;;;5052003;28;20418;-81
2023/08/14 04:20:54;;;;;;;113.67;3.33;;;23.50;74.30;;;;;;5033673;28;20866;-80
2023/08/14 04:23:19;;;;;;;113.60;3.10;;;23.60;71.40;;;;;;5051760;28;20470;-80
2023/08/14 04:25:45;;;;;;;114.00;3.30;;;23.60;70.40;;;;;;5051304;28;20925;-81
2023/08/14 04:28:11;;;;;;;113.93;3.47;;;23.60;70.30;;;;;;5051600;28;20183;-81
2023/08/14 04:30:36;;;;;;;114.27;3.77;;;23.70;69.20;;;;;;5051477;28;20303;-81
2023/08/14 04:33:02;;;;;;;113.60;2.90;;;23.70;69.30;;;;;;5049536;28;20181;-80
2023/08/14 04:35:27;;;;;;;114.20;3.60;;;23.70;69.10;;;;;;5065634;28;20175;-81
2023/08/14 04:37:53;;;;;;;113.87;3.40;;;23.90;67.70;;;;;;5051292;28;20171;-81
2023/08/14 04:40:19;;;;;;;113.80;3.20;;;23.70;68.40;;;;;;5051847;28;20198;-81
2023/08/14 04:42:44;;;;;;;113.90;3.40;;;23.70;68.40;;;;;;5033787;28;20207;-81
2023/08/14 04:45:10;;;;;;;113.27;3.17;;;23.50;69.50;;;;;;5051369;28;20187;-79
2023/08/14 04:47:36;;;;;;;113.63;3.10;;;22.90;72.50;;;;;;5051216;28;20209;-80
2023/08/14 04:50:01;;;;;;;113.77;3.30;;;22.70;75.10;;;;;;5033373;28;20457;-80
2023/08/14 04:52:27;;;;;;;114.37;3.60;;;22.30;77.90;;;;;;5051257;28;20179;-80
2023/08/14 04:54:52;;;;;;;113.77;3.20;;;21.80;82.70;;;;;;5033363;28;20186;-80
2023/08/14 04:57:18;;;;;;;113.60;3.03;;;22.10;83.70;;;;;;5053521;28;20680;-80
2023/08/14 04:59:44;;;;;;;114.00;3.27;;;22.80;77.20;;;;;;5055422;28;20256;-81
2023/08/14 05:02:09;;;;;;;113.97;3.23;;;23.40;70.00;;;;;;5055400;28;20191;-81
2023/08/14 05:04:35;;;;;;;114.20;3.40;;;23.50;69.20;;;;;;5055234;28;20210;-80
2023/08/14 05:07:01;;;;;;;114.03;3.23;;;23.50;68.90;;;;;;5054757;28;20660;-81
2023/08/14 05:09:27;;;;;;;114.03;3.33;;;23.50;67.80;;;;;;5055195;28;20634;-80
2023/08/14 05:11:52;;;;;;;114.03;3.10;;;23.60;67.70;;;;;;5055046;28;20560;-81
2023/08/14 05:14:18;;;;;;;113.37;2.80;;;23.60;68.20;;;;;;5055110;28;20201;-81
2023/08/14 05:16:47;;;;;;;114.23;3.43;;;23.60;67.80;;;;;;5054711;28;20267;-81
2023/08/14 05:19:13;;;;;;;114.00;3.20;;;23.60;69.30;;;;;;5055463;28;20416;-80
2023/08/14 05:21:39;;;;;;;113.77;2.97;;;23.80;68.90;;;;;;5050611;28;20793;-81
2023/08/14 05:24:04;;;;;;;114.27;3.60;;;23.70;67.40;;;;;;5054975;28;20269;-81
2023/08/14 05:26:30;;;;;;;114.10;3.33;;;23.70;68.00;;;;;;5054463;28;20273;-80
2023/08/14 05:28:55;;;;;;;114.10;3.40;;;23.70;68.30;;;;;;5054816;28;20732;-81
2023/08/14 05:31:21;;;;;;;114.00;3.33;;;23.70;68.80;;;;;;5054642;28;20164;-81
2023/08/14 05:33:47;;;;;;;113.97;3.37;;;23.80;68.40;;;;;;5054335;28;20179;-81
2023/08/14 05:36:12;;;;;;;114.87;3.43;;;24.00;68.40;;;;;;5054277;28;20603;-81
2023/08/14 05:38:38;;;;;;;113.63;3.03;;;24.10;68.10;;;;;;5036550;28;20199;-81
2023/08/14 05:41:03;;;;;;;113.67;3.13;;;24.10;67.40;;;;;;5054736;28;20664;-81
2023/08/14 05:43:29;;;;;;;113.47;3.17;;;24.20;66.40;;;;;;5036746;28;20169;-81
2023/08/14 05:45:54;;;;;;;113.60;3.23;;;24.20;67.20;;;;;;5054330;28;20196;-81
2023/08/14 05:48:21;;;;;;;113.97;3.63;;;24.20;67.10;;;;;;5036441;28;20671;-81
2023/08/14 05:50:50;;;;;;;114.63;3.50;;;24.20;66.90;;;;;;5036190;28;20207;-81
2023/08/14 05:53:15;;;;;;;114.27;3.73;;;24.30;66.90;;;;;;5054197;28;20412;-81
2023/08/14 05:55:42;;;;;;;114.27;3.20;;;24.40;66.60;;;;;;5036187;28;20463;-81
2023/08/14 05:58:08;;;;;;;114.40;3.50;;;24.50;65.10;;;;;;5054659;28;20298;-81
2023/08/14 06:00:35;;;;;;;113.40;2.97;;;24.40;65.80;;;;;;5054748;28;20416;-81
2023/08/14 06:03:01;;;;;;;116.50;3.43;;;24.40;67.00;;;;;;5053952;28;20408;-82
2023/08/14 06:05:27;;;;;;;113.10;3.10;;;24.20;67.60;;;;;;5054034;28;20977;-81
2023/08/14 06:07:54;;;;;;;113.27;3.17;;;24.10;66.80;;;;;;5055807;28;20465;-82
2023/08/14 06:10:20;;;;;;;114.37;3.47;;;23.80;66.20;;;;;;5055451;28;20196;-81
2023/08/14 06:12:46;;;;;;;113.53;3.53;;;25.20;73.40;;;;;;5054052;28;20416;-81
2023/08/14 06:15:12;;;;;;;113.20;3.30;;;23.10;76.00;;;;;;5053742;28;20411;-81
2023/08/14 06:17:39;;;;;;;113.47;3.60;;;23.20;76.10;;;;;;5053622;28;20497;-81
2023/08/14 06:20:05;;;;;;;113.47;3.60;;;23.60;72.70;;;;;;5053607;28;20418;-81
2023/08/14 06:22:31;;;;;;;113.90;3.70;;;23.60;71.60;;;;;;5036433;28;20419;-81
2023/08/14 06:24:56;;;;;;;112.97;3.07;;;23.80;73.30;;;;;;5053839;28;20407;-81
2023/08/14 06:27:22;;;;;;;113.57;3.40;;;23.30;75.40;;;;;;5053785;28;20190;-82
2023/08/14 06:29:48;;;;;;;114.07;3.77;;;23.60;74.60;;;;;;5053521;28;20211;-82
2023/08/14 06:32:14;;;;;;;114.27;3.23;;;24.20;70.60;;;;;;5036336;28;20178;-82
2023/08/14 06:34:39;;;;;;;114.43;4.00;;;24.00;69.00;;;;;;5035268;28;20409;-82
2023/08/14 06:37:05;;;;;;;113.47;3.47;;;23.80;69.80;;;;;;5053867;28;20194;-82
2023/08/14 06:39:31;;;;;;;113.97;3.70;;;23.40;73.00;;;;;;5035523;28;20183;-81
2023/08/14 06:41:57;;;;;;;116.30;4.30;;;24.10;69.10;;;;;;5053898;28;20415;-82
2023/08/14 06:44:23;;;;;;;113.87;3.47;;;24.60;63.80;;;;;;5053338;28;20409;-81
2023/08/14 06:46:48;;;;;;;113.77;3.70;;;24.40;65.30;;;;;;5035393;28;20254;-82
2023/08/14 06:49:14;;;;;;;113.80;3.50;;;24.50;65.40;;;;;;5065740;28;20230;-82
2023/08/14 06:51:40;;;;;;;113.73;3.43;;;24.70;64.00;;;;;;5054205;28;20166;-82
2023/08/14 06:54:06;;;;;;;114.33;3.50;;;24.70;64.70;;;;;;5053747;28;20167;-81
2023/08/14 06:56:32;;;;;;;114.17;3.33;;;24.90;63.30;;;;;;5053221;28;20958;-82
2023/08/14 06:58:57;;;;;;;113.67;3.20;;;24.70;64.30;;;;;;5072275;28;20225;-79
2023/08/14 07:01:24;;;;;;;113.67;3.37;;;25.00;64.20;;;;;;5078388;28;20424;-79
2023/08/14 07:03:49;;;;;;;113.97;3.43;;;25.20;63.80;;;;;;5060988;28;20171;-80
2023/08/14 07:06:15;;;;;;;114.27;3.60;;;25.40;61.60;;;;;;5078013;28;20531;-79
2023/08/14 07:08:40;;;;;;;114.27;3.77;;;25.50;61.00;;;;;;5089240;22;20191;-81
2023/08/14 07:11:06;;;;;;;114.77;3.43;;;25.50;62.20;;;;;;5059865;28;20194;-82
2023/08/14 07:13:31;;;;;;;114.30;3.80;;;25.60;60.30;;;;;;5061390;28;20548;-82
2023/08/14 07:15:57;;;;;;;114.20;3.80;;;25.10;62.00;;;;;;5061182;28;20265;-80
2023/08/14 07:18:23;;;;;;;113.97;3.80;;;24.70;67.00;;;;;;5060698;28;20193;-81
2023/08/14 07:20:49;;;;;;;114.20;3.70;;;24.70;67.40;;;;;;5060291;28;20203;-81
2023/08/14 07:23:19;;;;;;;113.80;3.43;;;25.10;68.80;;;;;;5044368;28;20176;-81
2023/08/14 07:25:45;;;;;;;114.80;3.87;;;24.90;64.90;;;;;;5043123;28;20183;-81
2023/08/14 07:28:12;;;;;;;114.17;3.53;;;25.00;66.30;;;;;;5061573;28;20759;-81
2023/08/14 07:30:38;;;;;;;115.03;3.80;;;25.20;65.60;;;;;;5061722;28;20468;-80
2023/08/14 07:33:05;;;;;;;113.87;3.37;;;25.60;62.90;;;;;;5060969;28;20414;-81
2023/08/14 07:35:31;;;;;;;113.87;3.50;;;25.90;61.40;;;;;;5061346;28;20440;-81
2023/08/14 07:37:58;;;;;;;114.37;3.63;;;26.20;57.40;;;;;;5061045;28;20418;-81
2023/08/14 07:40:23;;;;;;;113.97;3.43;;;26.20;55.90;;;;;;5057547;28;20621;-81
2023/08/14 07:42:49;;;;;;;114.27;3.77;;;26.20;56.50;;;;;;5058288;28;20438;-80
2023/08/14 07:45:15;;;;;;;114.47;3.80;;;25.80;56.00;;;;;;5057788;28;20441;-81
2023/08/14 07:47:41;;;;;;;114.80;3.90;;;26.00;60.10;;;;;;5057365;28;20259;-83
2023/08/14 07:50:07;;;;;;;114.67;3.90;;;26.20;56.70;;;;;;5058374;28;20218;-82
2023/08/14 07:52:34;;;;;;;114.07;3.50;;;26.20;56.20;;;;;;5059359;28;20175;-82
2023/08/14 07:55:00;;;;;;;114.40;3.50;;;25.90;55.30;;;;;;5057968;28;20976;-81
2023/08/14 07:57:26;;;;;;;115.40;4.27;;;25.70;56.90;;;;;;5056429;28;20449;-80
2023/08/14 07:59:52;;;;;;;115.20;3.70;;;25.50;58.80;;;;;;5039105;28;20454;-80
2023/08/14 08:02:17;;;;;;;114.30;3.40;;;26.00;61.20;;;;;;5057833;28;20421;-80
2023/08/14 08:04:43;;;;;;;114.50;4.00;;;26.20;57.60;;;;;;5056861;28;20182;-80
2023/08/14 08:07:09;;;;;;;116.40;3.30;;;26.00;57.10;;;;;;5057567;28;20258;-81
2023/08/14 08:09:35;;;;;;;114.17;3.20;;;26.00;56.30;;;;;;5055379;28;20465;-83
2023/08/14 08:12:01;;;;;;;114.20;3.10;;;25.80;59.00;;;;;;5055879;28;20655;-80
2023/08/14 08:14:27;;;;;;;114.17;3.10;;;25.90;58.20;;;;;;5056888;28;20180;-81
2023/08/14 08:16:52;;;;;;;114.00;3.20;;;26.40;58.30;;;;;;5056687;28;20885;-80
2023/08/14 08:19:18;;;;;;;113.80;2.93;;;26.90;56.20;;;;;;5056255;28;20208;-80
2023/08/14 08:21:44;;;;;;;113.57;3.17;;;26.60;55.70;;;;;;5056222;28;20229;-81
2023/08/14 08:24:10;;;;;;;114.07;3.37;;;26.20;60.20;;;;;;5055484;28;20670;-80
2023/08/14 08:26:36;;;;;;;114.07;3.43;;;26.00;59.80;;;;;;5055699;28;20179;-81
2023/08/14 08:29:02;;;;;;;114.07;3.50;;;26.40;58.50;;;;;;5055944;28;20880;-80
2023/08/14 08:31:28;;;;;;;114.50;3.37;;;26.90;56.40;;;;;;5057723;28;20402;-81
2023/08/14 08:33:54;;;;;;;113.37;3.00;;;27.20;53.50;;;;;;5059335;28;20928;-81
2023/08/14 08:36:19;;;;;;;113.87;3.57;;;26.90;55.40;;;;;;5041146;28;20184;-82
2023/08/14 08:38:46;;;;;;;113.83;3.30;;;27.10;56.10;;;;;;5041759;28;20215;-80
2023/08/14 08:41:34;;;;;;;113.70;3.40;;;27.10;56.70;;;;;;5059007;28;20167;-83
2023/08/14 08:44:03;;;;;;;113.70;3.27;;;26.80;58.90;;;;;;5059485;28;20410;-80
2023/08/14 08:46:34;;;;;;;114.00;3.63;;;27.00;56.90;;;;;;5058870;28;20402;-80
2023/08/14 08:49:02;;;;;;;113.27;2.90;;;26.80;57.30;;;;;;5057199;28;20429;-80
2023/08/14 08:51:29;;;;;;;124.50;3.90;;;26.80;57.00;;;;;;5056409;28;20975;-80
2023/08/14 08:53:55;;;;;;;113.40;3.23;;;26.80;57.70;;;;;;5055921;28;20775;-80
2023/08/14 08:56:22;;;;;;;113.30;3.40;;;26.90;58.50;;;;;;5056739;28;20420;-80
2023/08/14 08:58:48;;;;;;;115.20;4.17;;;27.10;54.80;;;;;;5056625;28;20257;-80
2023/08/14 09:01:14;;;;;;;112.97;2.87;;;27.30;52.50;;;;;;5056833;28;20474;-82
2023/08/14 09:03:40;;;;;;;113.20;3.03;;;27.40;55.00;;;;;;5057179;28;20874;-82
2023/08/14 09:06:05;;;;;;;113.30;2.90;;;27.30;56.70;;;;;;5039760;28;20417;-80
2023/08/14 09:08:31;;;;;;;112.90;2.87;;;27.20;55.40;;;;;;5057306;28;20209;-80
2023/08/14 09:10:57;;;;;;;112.77;2.87;;;27.90;54.90;;;;;;5057423;28;20250;-80
2023/08/14 09:13:23;;;;;;;113.67;3.47;;;28.10;52.20;;;;;;5057548;28;20176;-80
2023/08/14 09:15:52;;;;;;;112.80;3.17;;;28.00;54.70;;;;;;5058089;28;20410;-80
2023/08/14 09:18:17;;;;;;;112.67;3.33;;;28.20;50.70;;;;;;5040869;28;20426;-81
2023/08/14 09:20:44;;;;;;;112.70;3.10;;;28.10;53.60;;;;;;5058777;28;20444;-80
2023/08/14 09:23:14;;;;;;;112.40;3.00;;;28.00;54.00;;;;;;5058314;28;20179;-80
2023/08/14 09:25:41;;;;;;;112.80;3.30;;;28.10;53.40;;;;;;5058975;28;20976;-80
2023/08/14 09:28:08;;;;;;;112.57;3.30;;;28.50;52.10;;;;;;5058572;28;20406;-80
2023/08/14 09:30:36;;;;;;;113.80;3.20;;;29.00;50.20;;;;;;5058671;28;20465;-81
2023/08/14 09:33:05;;;;;;;112.60;3.30;;;29.30;49.00;;;;;;5059024;28;20417;-81
2023/08/14 09:35:31;;;;;;;113.10;3.67;;;29.50;47.60;;;;;;5058250;28;20402;-81
2023/08/14 09:37:58;;;;;;;113.97;4.00;;;29.30;46.00;;;;;;5059949;28;20416;-82
2023/08/14 09:40:24;;;;;;;112.37;3.10;;;29.40;47.20;;;;;;5059176;28;20250;-80
2023/08/14 09:42:50;;;;;;;112.17;3.10;;;29.60;46.60;;;;;;5059015;28;20450;-81
2023/08/14 09:45:18;;;;;;;111.97;2.97;;;29.80;48.50;;;;;;5059147;28;20203;-80
2023/08/14 09:47:45;;;;;;;112.37;3.20;;;30.20;47.50;;;;;;5060071;28;20410;-80
2023/08/14 09:50:15;;;;;;;112.27;3.13;;;30.30;47.10;;;;;;5060474;28;20493;-83
2023/08/14 09:52:42;;;;;;;113.03;3.53;;;30.30;41.40;;;;;;5059709;28;20434;-81
2023/08/14 09:55:07;;;;;;;112.17;2.93;;;29.70;42.40;;;;;;5060926;28;20402;-81
2023/08/14 09:57:34;;;;;;;111.80;2.93;;;30.10;44.10;;;;;;5060615;28;20414;-82
2023/08/14 09:59:59;;;;;;;112.17;3.13;;;30.30;43.70;;;;;;5060725;28;20203;-82
2023/08/14 10:02:26;;;;;;;115.97;3.03;;;30.50;41.80;;;;;;5060841;28;20410;-81
2023/08/14 10:04:52;;;;;;;114.83;3.70;;;30.90;38.50;;;;;;5060841;28;20184;-83
2023/08/14 10:07:20;;;;;;;111.53;2.70;;;30.90;39.60;;;;;;5060641;28;20936;-81
2023/08/14 10:09:59;;;;;;;111.73;2.90;;;31.30;40.20;;;;;;5060613;28;20477;-81
2023/08/14 10:12:28;;;;;;;111.67;2.80;;;31.40;37.90;;;;;;5043763;28;20418;-81
2023/08/14 10:15:08;;;;;;;111.90;3.10;;;31.30;38.70;;;;;;5060992;28;20966;-81
2023/08/14 10:17:50;;;;;;;111.07;2.77;;;31.50;36.10;;;;;;5062010;28;20414;-81
2023/08/14 10:20:18;;;;;;;111.77;2.97;;;31.50;38.90;;;;;;5044175;28;20471;-81
2023/08/14 10:22:46;;;;;;;110.50;2.70;;;31.60;35.30;;;;;;5062647;28;20422;-81
2023/08/14 10:25:13;;;;;;;111.07;3.13;;;31.20;33.20;;;;;;5062521;28;20927;-81
2023/08/14 10:27:39;;;;;;;110.30;2.70;;;31.40;37.60;;;;;;5062584;28;20909;-81
2023/08/14 10:30:06;;;;;;;136.57;4.57;;;31.80;32.60;;;;;;5062184;28;20496;-81
2023/08/14 10:32:32;;;;;;;110.50;3.13;;;32.10;31.40;;;;;;5060929;28;20410;-81
2023/08/14 10:34:59;;;;;;;110.07;2.90;;;32.30;30.20;;;;;;5042030;28;20430;-82
2023/08/14 10:37:40;;;;;;;110.33;2.90;;;32.40;33.00;;;;;;5042170;28;20795;-82
2023/08/14 10:40:19;;;;;;;111.10;3.27;;;32.40;35.00;;;;;;5059975;28;20874;-80
2023/08/14 10:42:51;;;;;;;110.27;3.30;;;32.50;32.90;;;;;;5060192;28;20405;-82
2023/08/14 10:45:18;;;;;;;110.10;3.00;;;32.60;30.70;;;;;;5060112;28;20410;-83
2023/08/14 10:47:44;;;;;;;109.93;3.10;;;32.80;31.20;;;;;;5060051;28;20410;-82
2023/08/14 10:50:22;;;;;;;110.37;3.30;;;32.70;31.80;;;;;;5060416;28;20462;-81
2023/08/14 10:52:51;;;;;;;110.47;3.00;;;33.10;30.00;;;;;;5060045;28;20410;-81
2023/08/14 10:55:25;;;;;;;109.77;2.90;;;32.30;28.60;;;;;;5041305;28;20422;-81
2023/08/14 10:57:51;;;;;;;109.07;2.80;;;;;;;;;;5059623;28;20447;-83
2023/08/14 11:00:24;;;;;;;108.50;2.60;;;31.70;29.70;;;;;;5042234;28;21042;-83
2023/08/14 11:03:11;;;;;;;108.53;2.73;;;31.20;35.20;;;;;;5060442;28;20421;-82
2023/08/14 11:05:38;;;;;;;108.37;2.70;;;31.30;36.20;;;;;;5059172;28;20446;-82
2023/08/14 11:08:07;;;;;;;108.17;2.80;;;31.50;35.70;;;;;;5059405;28;20410;-82
2023/08/14 11:10:36;;;;;;;108.00;2.80;;;31.10;36.50;;;;;;5058641;28;20493;-81
2023/08/14 11:13:06;;;;;;;107.93;2.80;;;31.00;36.80;;;;;;5059386;28;20775;-82
2023/08/14 11:15:33;;;;;;;108.07;2.80;;;30.80;38.80;;;;;;5058369;28;20410;-82
2023/08/14 11:17:59;;;;;;;107.87;2.80;;;31.10;37.30;;;;;;5041412;28;20406;-82
2023/08/14 11:20:29;;;;;;;109.00;2.80;;;31.30;37.60;;;;;;5059784;28;21005;-82
2023/08/14 11:22:56;;;;;;;107.60;2.60;;;;;;;;;;5057370;28;20176;-81
2023/08/14 11:25:22;;;;;;;107.37;2.50;;;31.60;35.20;;;;;;5060351;28;20402;-82
2023/08/14 11:27:52;;;;;;;107.57;2.67;;;31.70;35.50;;;;;;5061561;28;20414;-84
2023/08/14 11:30:23;;;;;;;107.47;2.50;;;31.70;33.20;;;;;;5043460;28;20476;-82
2023/08/14 11:32:53;;;;;;;107.10;2.40;;;31.80;33.50;;;;;;5043710;28;20422;-82
2023/08/14 11:35:19;;;;;;;107.27;2.63;;;31.80;34.20;;;;;;5061050;28;20398;-82
2023/08/14 11:37:46;;;;;;;107.60;2.97;;;32.10;33.00;;;;;;5062071;28;20970;-82
2023/08/14 11:40:15;;;;;;;107.63;3.30;;;32.30;32.50;;;;;;5061731;28;20434;-83
2023/08/14 11:42:41;;;;;;;106.57;2.50;;;32.50;31.50;;;;;;5061658;28;20413;-83
2023/08/14 11:45:07;;;;;;;105.97;2.50;;;32.40;33.90;;;;;;5061675;28;20406;-82
2023/08/14 11:47:35;;;;;;;105.33;2.40;;;31.90;33.60;;;;;;5061706;28;20464;-82
2023/08/14 11:50:03;;;;;;;105.63;2.40;;;31.70;34.80;;;;;;5062598;28;20461;-82
2023/08/14 11:52:29;;;;;;;105.10;2.20;;;31.40;35.70;;;;;;5044748;28;20925;-82
2023/08/14 11:54:56;;;;;;;106.37;2.77;;;30.90;36.30;;;;;;5062075;28;20435;-82
2023/08/14 11:57:29;;;;;;;105.97;2.50;;;30.70;37.40;;;;;;5063163;28;20168;-82
2023/08/14 11:59:57;;;;;;;106.30;2.80;;;31.30;37.50;;;;;;5062448;28;20437;-83
2023/08/14 12:02:23;;;;;;;106.43;2.90;;;31.30;38.00;;;;;;5044395;28;20782;-83
2023/08/14 12:04:57;;;;;;;106.07;2.60;;;31.10;35.40;;;;;;5061909;28;20416;-82
2023/08/14 12:07:26;;;;;;;107.17;2.83;;;30.60;36.70;;;;;;5062385;28;20436;-82
2023/08/14 12:09:54;;;;;;;106.63;2.77;;;30.60;37.10;;;;;;5062267;28;20535;-82
2023/08/14 12:12:20;;;;;;;106.60;2.80;;;;;;;;;;5062032;28;20406;-82
2023/08/14 12:14:47;;;;;;;106.70;2.70;;;30.50;38.00;;;;;;5054694;28;20928;-82
2023/08/14 12:17:15;;;;;;;106.63;2.70;;;30.60;38.50;;;;;;5054696;28;20406;-82
2023/08/14 12:19:42;;;;;;;106.97;2.90;;;30.40;38.90;;;;;;5054665;28;20449;-82
2023/08/14 12:22:08;;;;;;;106.93;2.87;;;30.50;38.00;;;;;;5055549;28;20493;-82
2023/08/14 12:24:42;;;;;;;106.97;3.03;;;30.10;39.50;;;;;;5058514;28;20472;-83
2023/08/14 12:27:28;;;;;;;106.97;2.80;;;30.20;39.10;;;;;;5059933;28;20477;-83